createdAt,value
2018-03-31T00:00:13.836Z,15.77
2018-03-31T00:02:40.813Z,15.93
2018-03-31T00:05:07.812Z,16.00
2018-03-31T00:07:34.808Z,15.80
2018-03-31T00:10:01.788Z,14.93
2018-03-31T00:12:28.787Z,15.83
2018-03-31T00:14:55.771Z,16.67
2018-03-31T00:17:23.516Z,15.53
2018-03-31T00:19:50.486Z,16.00
2018-03-31T00:22:23.896Z,15.80
2018-03-31T00:24:50.872Z,16.43
2018-03-31T00:27:17.865Z,15.67
2018-03-31T00:29:45.635Z,17.00
2018-03-31T00:32:13.419Z,15.60
2018-03-31T00:34:40.407Z,16.80
2018-03-31T00:37:07.394Z,16.70
2018-03-31T00:39:35.146Z,15.20
2018-03-31T00:42:02.921Z,17.30
2018-03-31T00:44:30.663Z,15.47
2018-03-31T00:46:57.655Z,17.47
2018-03-31T00:49:24.631Z,15.23
2018-03-31T00:51:51.619Z,16.37
2018-03-31T00:54:18.595Z,16.77
2018-03-31T00:56:45.588Z,17.17
2018-03-31T00:59:12.568Z,17.20
2018-03-31T01:01:40.316Z,15.80
2018-03-31T01:04:07.303Z,15.97
2018-03-31T01:06:34.292Z,18.00
2018-03-31T01:09:01.276Z,16.50
2018-03-31T01:11:29.027Z,19.70
2018-03-31T01:13:56.012Z,15.87
2018-03-31T01:16:22.988Z,17.77
2018-03-31T01:18:49.967Z,16.43
2018-03-31T01:21:16.950Z,16.43
2018-03-31T01:23:43.931Z,17.50
2018-03-31T01:26:10.924Z,18.30
2018-03-31T01:28:38.664Z,19.37
2018-03-31T01:31:05.657Z,18.50
2018-03-31T01:33:32.641Z,16.60
2018-03-31T01:35:59.638Z,19.57
2018-03-31T01:38:27.375Z,18.73
2018-03-31T01:40:54.363Z,18.50
2018-03-31T01:43:21.347Z,17.67
2018-03-31T01:45:48.355Z,18.10
2018-03-31T01:48:15.334Z,19.47
2018-03-31T01:50:42.373Z,19.60
2018-03-31T01:53:09.377Z,19.10
2018-03-31T01:55:37.110Z,18.20
2018-03-31T01:58:04.098Z,18.50
2018-03-31T02:00:31.082Z,20.67
2018-03-31T02:02:58.075Z,20.07
2018-03-31T02:05:25.828Z,19.80
2018-03-31T02:07:52.815Z,21.20
2018-03-31T02:10:19.791Z,18.47
2018-03-31T02:12:47.543Z,19.20
2018-03-31T02:15:14.519Z,20.00
2018-03-31T02:17:41.505Z,21.30
2018-03-31T02:20:09.243Z,21.93
2018-03-31T02:22:36.231Z,20.50
2018-03-31T02:25:03.214Z,21.43
2018-03-31T02:27:30.567Z,21.87
2018-03-31T02:29:57.547Z,21.50
2018-03-31T02:32:24.536Z,19.90
2018-03-31T02:34:51.517Z,19.60
2018-03-31T02:37:18.503Z,21.30
2018-03-31T02:39:46.248Z,20.77
2018-03-31T02:42:13.248Z,21.23
2018-03-31T02:44:40.236Z,19.23
2018-03-31T02:47:07.228Z,22.80
2018-03-31T02:49:34.209Z,22.03
2018-03-31T02:52:01.197Z,22.17
2018-03-31T02:54:28.941Z,21.87
2018-03-31T02:56:55.940Z,22.20
2018-03-31T02:59:22.920Z,21.90
2018-03-31T03:01:49.920Z,21.37
2018-03-31T03:04:17.657Z,21.90
2018-03-31T03:06:44.648Z,20.83
2018-03-31T03:09:11.620Z,23.80
2018-03-31T03:11:38.610Z,25.23
2018-03-31T03:14:06.354Z,23.80
2018-03-31T03:16:33.346Z,23.60
2018-03-31T03:19:00.323Z,25.33
2018-03-31T03:21:27.307Z,25.97
2018-03-31T03:23:54.288Z,24.47
2018-03-31T03:26:21.276Z,24.83
2018-03-31T03:28:48.255Z,23.40
2018-03-31T03:31:16.013Z,24.00
2018-03-31T03:33:43.761Z,26.30
2018-03-31T03:36:10.755Z,26.10
2018-03-31T03:38:37.744Z,25.40
2018-03-31T03:41:04.718Z,27.80
2018-03-31T03:43:31.705Z,26.37
2018-03-31T03:45:58.680Z,29.27
2018-03-31T03:48:25.666Z,27.70
2018-03-31T03:50:53.407Z,28.20
2018-03-31T03:53:20.395Z,29.20
2018-03-31T03:55:47.497Z,28.40
2018-03-31T03:58:14.486Z,28.83
2018-03-31T04:00:42.246Z,29.10
2018-03-31T04:03:09.992Z,31.60
2018-03-31T04:05:36.971Z,29.30
2018-03-31T04:08:03.956Z,30.47
2018-03-31T04:10:30.940Z,30.60
2018-03-31T04:12:58.689Z,31.70
2018-03-31T04:15:25.671Z,32.80
2018-03-31T04:17:52.664Z,32.23
2018-03-31T04:20:19.651Z,32.60
2018-03-31T04:22:47.408Z,33.03
2018-03-31T04:25:15.161Z,33.67
2018-03-31T04:27:42.150Z,36.30
2018-03-31T04:30:09.132Z,35.03
2018-03-31T04:32:36.143Z,34.17
2018-03-31T04:35:03.134Z,33.50
2018-03-31T04:37:30.558Z,35.03
2018-03-31T04:39:57.536Z,33.20
2018-03-31T04:42:24.523Z,33.90
2018-03-31T04:44:52.272Z,33.20
2018-03-31T04:47:19.286Z,33.53
2018-03-31T04:49:46.264Z,34.70
2018-03-31T04:52:13.253Z,34.30
2018-03-31T04:54:40.247Z,34.90
2018-03-31T04:57:07.230Z,35.23
2018-03-31T04:59:34.233Z,33.50
2018-03-31T05:02:01.234Z,32.57
2018-03-31T05:04:28.211Z,31.53
2018-03-31T05:06:55.195Z,33.20
2018-03-31T05:09:22.186Z,31.63
2018-03-31T05:11:49.176Z,31.00
2018-03-31T05:14:16.156Z,28.73
2018-03-31T05:16:43.159Z,31.63
2018-03-31T05:19:10.135Z,31.93
2018-03-31T05:21:37.884Z,32.80
2018-03-31T05:24:04.868Z,34.20
2018-03-31T05:26:31.856Z,31.20
2018-03-31T05:28:58.844Z,33.23
2018-03-31T05:31:26.578Z,32.20
2018-03-31T05:33:53.567Z,30.00
2018-03-31T05:36:21.312Z,29.93
2018-03-31T05:38:48.298Z,30.90
2018-03-31T05:41:15.276Z,32.63
2018-03-31T05:43:42.264Z,31.00
2018-03-31T05:46:10.016Z,32.13
2018-03-31T05:48:37.007Z,31.30
2018-03-31T05:51:03.984Z,31.13
2018-03-31T05:53:30.976Z,28.40
2018-03-31T05:55:58.727Z,31.67
2018-03-31T05:58:26.500Z,31.17
2018-03-31T06:00:54.240Z,31.77
2018-03-31T06:03:21.225Z,32.03
2018-03-31T06:05:48.204Z,30.93
2018-03-31T06:08:15.189Z,31.33
2018-03-31T06:10:42.182Z,30.70
2018-03-31T06:13:09.171Z,31.43
2018-03-31T06:15:36.144Z,30.70
2018-03-31T06:18:03.907Z,29.60
2018-03-31T06:20:31.648Z,31.33
2018-03-31T06:22:58.635Z,29.80
2018-03-31T06:25:25.619Z,29.97
2018-03-31T06:27:52.635Z,34.30
2018-03-31T06:30:19.617Z,32.73
2018-03-31T06:32:46.600Z,29.70
2018-03-31T06:35:14.359Z,32.33
2018-03-31T06:37:41.348Z,31.30
2018-03-31T06:40:08.327Z,31.70
2018-03-31T06:42:35.320Z,30.90
2018-03-31T06:45:03.065Z,32.70
2018-03-31T06:47:30.053Z,31.47
2018-03-31T06:49:59.987Z,32.43
2018-03-31T06:52:26.982Z,30.73
2018-03-31T06:54:54.730Z,29.73
2018-03-31T06:57:21.721Z,31.07
2018-03-31T06:59:48.687Z,29.63
2018-03-31T07:02:15.685Z,31.23
2018-03-31T07:04:56.623Z,29.30
2018-03-31T07:07:23.605Z,30.20
2018-03-31T07:09:51.043Z,31.37
2018-03-31T07:12:18.114Z,28.77
2018-03-31T07:14:45.184Z,29.10
2018-03-31T07:17:12.172Z,31.33
2018-03-31T07:19:39.199Z,28.93
2018-03-31T07:22:06.212Z,50.80
2018-03-31T07:24:33.953Z,31.70
2018-03-31T07:27:00.928Z,29.20
2018-03-31T07:29:28.694Z,27.27
2018-03-31T07:31:56.436Z,24.40
2018-03-31T07:34:23.416Z,26.30
2018-03-31T07:36:50.396Z,26.30
2018-03-31T07:39:17.424Z,26.93
2018-03-31T07:41:44.830Z,24.40
2018-03-31T07:44:11.832Z,25.40
2018-03-31T07:46:38.823Z,25.23
2018-03-31T07:49:05.816Z,26.67
2018-03-31T07:51:32.795Z,26.97
2018-03-31T07:53:59.775Z,25.80
2018-03-31T07:56:27.525Z,26.03
2018-03-31T07:58:54.573Z,25.20
2018-03-31T08:01:21.558Z,24.50
2018-03-31T08:03:48.567Z,24.60
2018-03-31T08:06:15.539Z,23.77
2018-03-31T08:08:43.306Z,26.50
2018-03-31T08:11:11.049Z,26.03
2018-03-31T08:13:38.029Z,26.77
2018-03-31T08:16:05.020Z,24.10
2018-03-31T08:18:32.011Z,26.23
2018-03-31T08:20:59.742Z,26.20
2018-03-31T08:23:26.744Z,30.67
2018-03-31T08:25:53.735Z,46.50
2018-03-31T08:28:20.727Z,27.27
2018-03-31T08:30:47.715Z,28.00
2018-03-31T08:33:14.724Z,26.17
2018-03-31T08:35:41.722Z,26.40
2018-03-31T08:38:08.712Z,25.33
2018-03-31T08:40:35.700Z,28.87
2018-03-31T08:43:02.687Z,24.67
2018-03-31T08:45:29.675Z,25.37
2018-03-31T08:47:56.655Z,23.57
2018-03-31T08:50:23.655Z,23.10
2018-03-31T08:52:50.648Z,24.97
2018-03-31T08:55:17.636Z,24.67
2018-03-31T08:57:45.517Z,26.80
2018-03-31T09:00:12.510Z,28.70
2018-03-31T09:02:39.877Z,23.17
2018-03-31T09:05:06.847Z,25.47
2018-03-31T09:07:34.604Z,25.13
2018-03-31T09:10:02.347Z,23.47
2018-03-31T09:12:29.324Z,25.87
2018-03-31T09:14:56.319Z,26.97
2018-03-31T09:17:23.415Z,26.63
2018-03-31T09:19:51.162Z,26.37
2018-03-31T09:22:18.161Z,25.73
2018-03-31T09:24:45.144Z,22.67
2018-03-31T09:27:12.141Z,22.93
2018-03-31T09:29:39.140Z,21.53
2018-03-31T09:32:06.116Z,22.07
2018-03-31T09:34:33.879Z,22.70
2018-03-31T09:37:01.626Z,20.70
2018-03-31T09:39:28.636Z,19.33
2018-03-31T09:41:55.615Z,20.40
2018-03-31T09:44:22.617Z,17.93
2018-03-31T09:46:49.628Z,20.93
2018-03-31T09:49:16.591Z,18.63
2018-03-31T09:51:43.571Z,18.53
2018-03-31T09:54:10.564Z,17.07
2018-03-31T09:56:37.746Z,17.63
2018-03-31T09:59:05.188Z,17.60
2018-03-31T10:01:32.928Z,17.83
2018-03-31T10:03:59.919Z,17.70
2018-03-31T10:06:26.906Z,17.83
2018-03-31T10:08:53.890Z,17.40
2018-03-31T10:11:21.627Z,18.50
2018-03-31T10:13:48.622Z,19.90
2018-03-31T10:16:15.599Z,17.50
2018-03-31T10:18:42.596Z,17.37
2018-03-31T10:21:10.337Z,16.60
2018-03-31T10:23:37.353Z,16.33
2018-03-31T10:26:04.319Z,16.53
2018-03-31T10:28:31.306Z,16.90
2018-03-31T10:30:59.059Z,17.70
2018-03-31T10:33:26.835Z,15.17
2018-03-31T10:35:54.582Z,15.80
2018-03-31T10:38:21.569Z,14.33
2018-03-31T10:40:48.548Z,13.50
2018-03-31T10:43:15.552Z,13.70
2018-03-31T10:45:42.575Z,13.10
2018-03-31T10:48:09.589Z,12.20
2018-03-31T10:50:36.571Z,10.93
2018-03-31T10:53:03.659Z,20.40
2018-03-31T10:55:30.669Z,10.40
2018-03-31T10:57:58.446Z,11.20
2018-03-31T11:00:26.196Z,11.60
2018-03-31T11:02:53.949Z,11.83
2018-03-31T11:05:20.963Z,11.23
2018-03-31T11:07:47.938Z,11.07
2018-03-31T11:10:14.919Z,11.17
2018-03-31T11:12:41.896Z,11.43
2018-03-31T11:15:08.888Z,11.30
2018-03-31T11:17:35.887Z,12.57
2018-03-31T11:20:02.967Z,11.03
2018-03-31T11:22:29.952Z,9.40
2018-03-31T11:24:57.704Z,9.90
2018-03-31T11:27:25.457Z,10.73
2018-03-31T11:29:52.475Z,10.33
2018-03-31T11:32:19.486Z,8.90
2018-03-31T11:34:46.450Z,8.93
2018-03-31T11:37:13.436Z,10.03
2018-03-31T11:39:41.144Z,8.87
2018-03-31T11:42:08.124Z,8.70
2018-03-31T11:44:35.122Z,9.00
2018-03-31T11:47:02.863Z,9.27
2018-03-31T11:49:29.852Z,8.90
2018-03-31T11:51:56.821Z,8.20
2018-03-31T11:54:23.821Z,9.37
2018-03-31T11:56:50.801Z,10.40
2018-03-31T11:59:17.784Z,8.87
2018-03-31T12:01:44.762Z,9.30
2018-03-31T12:04:12.510Z,8.17
2018-03-31T12:06:39.518Z,9.10
2018-03-31T12:09:06.508Z,9.50
2018-03-31T12:11:33.489Z,10.60
2018-03-31T12:14:00.491Z,9.67
2018-03-31T12:16:27.473Z,10.83
2018-03-31T12:18:55.232Z,9.83
2018-03-31T12:21:22.976Z,11.17
2018-03-31T12:23:49.959Z,11.13
2018-03-31T12:26:16.953Z,11.40
2018-03-31T12:28:43.939Z,10.77
2018-03-31T12:31:11.683Z,10.60
2018-03-31T12:33:38.668Z,10.83
2018-03-31T12:36:05.647Z,10.60
2018-03-31T12:38:32.674Z,11.10
2018-03-31T12:40:59.693Z,11.73
2018-03-31T12:43:27.532Z,10.13
2018-03-31T12:45:54.536Z,10.50
2018-03-31T12:48:22.392Z,12.70
2018-03-31T12:50:49.396Z,11.27
2018-03-31T12:53:16.378Z,11.17
2018-03-31T12:55:43.380Z,11.50
2018-03-31T12:58:10.367Z,12.00
2018-03-31T13:00:37.383Z,12.20
2018-03-31T13:03:04.363Z,12.60
2018-03-31T13:05:31.359Z,12.83
2018-03-31T13:07:58.335Z,11.33
2018-03-31T13:10:26.089Z,11.80
2018-03-31T13:12:53.090Z,11.67
2018-03-31T13:15:20.080Z,12.90
2018-03-31T13:17:47.080Z,13.10
2018-03-31T13:20:14.060Z,14.27
2018-03-31T13:22:41.068Z,14.90
2018-03-31T13:25:08.051Z,16.87
2018-03-31T13:27:35.806Z,18.93
2018-03-31T13:30:02.792Z,18.77
2018-03-31T13:32:29.778Z,22.33
2018-03-31T13:34:56.784Z,24.97
2018-03-31T13:37:23.743Z,26.00
2018-03-31T13:39:51.502Z,27.70
2018-03-31T13:42:18.498Z,28.20
2018-03-31T13:44:45.483Z,25.13
2018-03-31T13:47:12.461Z,25.67
2018-03-31T13:49:39.472Z,23.13
2018-03-31T13:52:06.448Z,20.50
2018-03-31T13:54:34.254Z,21.00
2018-03-31T13:57:01.241Z,19.90
2018-03-31T13:59:28.263Z,21.10
2018-03-31T14:01:55.236Z,21.00
2018-03-31T14:04:22.231Z,21.00
2018-03-31T14:06:49.212Z,22.60
2018-03-31T14:09:16.187Z,19.53
2018-03-31T14:11:43.940Z,20.73
2018-03-31T14:14:10.929Z,18.67
2018-03-31T14:16:37.907Z,18.10
2018-03-31T14:19:04.887Z,16.60
2018-03-31T14:21:32.638Z,14.40
2018-03-31T14:23:59.632Z,12.97
2018-03-31T14:26:26.608Z,14.83
2018-03-31T14:28:53.588Z,14.60
2018-03-31T14:31:20.587Z,14.97
2018-03-31T14:33:47.566Z,14.17
2018-03-31T14:36:14.563Z,14.17
2018-03-31T14:38:41.571Z,13.93
2018-03-31T14:41:08.566Z,16.17
2018-03-31T14:43:35.548Z,16.63
2018-03-31T14:46:02.568Z,16.07
2018-03-31T14:48:29.543Z,17.37
2018-03-31T14:50:56.524Z,19.00
2018-03-31T14:53:24.268Z,16.23
2018-03-31T14:55:51.258Z,17.30
2018-03-31T14:58:19.060Z,17.53
2018-03-31T15:00:46.042Z,16.73
2018-03-31T15:03:13.797Z,16.57
2018-03-31T15:05:40.808Z,19.03
2018-03-31T15:08:07.780Z,18.00
2018-03-31T15:10:34.840Z,18.40
2018-03-31T15:13:01.786Z,18.13
2018-03-31T15:15:28.787Z,18.33
2018-03-31T15:17:55.763Z,18.10
2018-03-31T15:20:22.756Z,17.87
2018-03-31T15:22:49.738Z,17.90
2018-03-31T15:25:17.332Z,18.80
2018-03-31T15:27:44.312Z,16.83
2018-03-31T15:30:11.304Z,17.33
2018-03-31T15:32:38.280Z,19.43
2018-03-31T15:35:05.264Z,17.53
2018-03-31T15:37:32.243Z,19.10
2018-03-31T15:39:59.289Z,18.90
2018-03-31T15:42:26.257Z,18.37
2018-03-31T15:44:53.237Z,18.10
2018-03-31T15:47:20.241Z,16.90
2018-03-31T15:49:47.227Z,18.43
2018-03-31T15:52:14.971Z,19.20
2018-03-31T15:54:41.956Z,19.23
2018-03-31T15:57:08.939Z,20.87
2018-03-31T15:59:36.030Z,18.47
2018-03-31T16:02:02.927Z,19.03
2018-03-31T16:04:29.919Z,17.37
2018-03-31T16:06:57.664Z,17.60
2018-03-31T16:09:24.643Z,18.80
2018-03-31T16:11:51.644Z,19.70
2018-03-31T16:14:18.622Z,17.87
2018-03-31T16:16:46.376Z,16.60
2018-03-31T16:19:13.355Z,17.27
2018-03-31T16:21:40.348Z,18.30
2018-03-31T16:24:07.315Z,16.90
2018-03-31T16:26:34.318Z,17.30
2018-03-31T16:29:01.300Z,17.43
2018-03-31T16:31:28.284Z,17.43
2018-03-31T16:33:55.267Z,16.00
2018-03-31T16:36:22.261Z,17.03
2018-03-31T16:38:50.028Z,16.43
2018-03-31T16:41:17.796Z,17.93
2018-03-31T16:43:45.543Z,18.30
2018-03-31T16:46:12.525Z,16.10
2018-03-31T16:48:39.508Z,20.60
2018-03-31T16:51:06.503Z,22.83
2018-03-31T16:53:34.263Z,20.77
2018-03-31T16:56:02.032Z,20.30
2018-03-31T16:58:29.786Z,22.57
2018-03-31T17:00:56.808Z,24.90
2018-03-31T17:03:23.786Z,19.50
2018-03-31T17:05:51.535Z,21.93
2018-03-31T17:08:18.516Z,18.00
2018-03-31T17:10:45.497Z,18.70
2018-03-31T17:13:12.490Z,16.70
2018-03-31T17:15:40.266Z,17.13
2018-03-31T17:18:08.016Z,17.20
2018-03-31T17:20:35.796Z,15.33
2018-03-31T17:23:03.540Z,17.30
2018-03-31T17:25:30.531Z,16.63
2018-03-31T17:27:57.508Z,15.90
2018-03-31T17:30:24.495Z,16.80
2018-03-31T17:32:52.267Z,17.33
2018-03-31T17:35:19.277Z,16.50
2018-03-31T17:37:46.244Z,16.33
2018-03-31T17:40:14.044Z,17.57
2018-03-31T17:42:41.022Z,18.10
2018-03-31T17:45:08.013Z,17.10
2018-03-31T17:47:35.753Z,16.20
2018-03-31T17:50:02.759Z,19.17
2018-03-31T17:52:29.748Z,19.70
2018-03-31T17:54:56.724Z,24.70
2018-03-31T17:57:23.716Z,24.77
2018-03-31T17:59:50.706Z,28.43
2018-03-31T18:02:18.512Z,37.10
2018-03-31T18:04:45.498Z,45.00
2018-03-31T18:07:12.528Z,51.50
2018-03-31T18:09:39.527Z,65.27
2018-03-31T18:12:06.527Z,70.27
2018-03-31T18:14:33.515Z,49.77
2018-03-31T18:17:01.286Z,47.07
2018-03-31T18:19:29.083Z,38.57
2018-03-31T18:21:56.039Z,39.93
2018-03-31T18:24:23.804Z,50.97
2018-03-31T18:26:50.808Z,51.40
2018-03-31T18:29:18.547Z,50.73
2018-03-31T18:31:46.212Z,44.33
2018-03-31T18:34:13.196Z,41.93
2018-03-31T18:36:40.173Z,37.40
2018-03-31T18:39:07.151Z,32.70
2018-03-31T18:41:34.136Z,35.87
2018-03-31T18:44:01.110Z,39.87
2018-03-31T18:46:28.099Z,44.90
2018-03-31T18:48:55.860Z,46.70
2018-03-31T18:51:22.907Z,46.90
2018-03-31T18:53:49.832Z,30.67
2018-03-31T18:56:16.917Z,26.80
2018-03-31T18:58:44.673Z,28.83
2018-03-31T19:01:12.425Z,30.43
2018-03-31T19:03:39.416Z,29.27
2018-03-31T19:06:06.398Z,33.00
2018-03-31T19:08:33.388Z,29.70
2018-03-31T19:11:01.196Z,29.63
2018-03-31T19:13:28.137Z,32.47
2018-03-31T19:15:55.143Z,39.37
2018-03-31T19:18:22.893Z,38.97
2018-03-31T19:20:49.889Z,39.30
2018-03-31T19:23:16.884Z,40.67
2018-03-31T19:25:43.867Z,36.67
2018-03-31T19:28:10.878Z,33.13
2018-03-31T19:30:43.480Z,31.73
2018-03-31T19:33:11.231Z,38.27
2018-03-31T19:35:44.716Z,41.00
2018-03-31T19:38:11.693Z,39.23
2018-03-31T19:40:39.428Z,40.23
2018-03-31T19:43:06.419Z,39.00
2018-03-31T19:45:33.388Z,35.43
2018-03-31T19:48:00.424Z,37.93
2018-03-31T19:50:27.417Z,38.93
2018-03-31T19:52:54.399Z,38.80
2018-03-31T19:55:21.385Z,42.90
2018-03-31T19:57:48.364Z,41.70
2018-03-31T20:00:15.335Z,45.87
2018-03-31T20:02:42.325Z,47.00
2018-03-31T20:05:09.305Z,46.83
2018-03-31T20:07:36.283Z,46.47
2018-03-31T20:10:03.267Z,44.57
2018-03-31T20:12:30.251Z,48.03
2018-03-31T20:14:58.006Z,44.03
2018-03-31T20:17:24.997Z,42.00
2018-03-31T20:19:51.981Z,41.73
2018-03-31T20:22:18.972Z,39.17
2018-03-31T20:24:46.720Z,38.17
2018-03-31T20:27:14.477Z,37.27
2018-03-31T20:29:41.467Z,35.17
2018-03-31T20:32:08.481Z,33.17
2018-03-31T20:34:36.232Z,40.93
2018-03-31T20:39:57.382Z,41.77
2018-03-31T20:42:25.172Z,40.67
2018-03-31T20:44:52.148Z,43.70
2018-03-31T20:47:19.130Z,47.83
2018-03-31T20:49:46.123Z,48.10
2018-03-31T20:52:13.111Z,48.90
2018-03-31T20:54:40.096Z,51.83
2018-03-31T20:57:07.088Z,48.47
2018-03-31T20:59:34.083Z,56.13
2018-03-31T21:02:01.835Z,59.30
2018-03-31T21:04:29.580Z,65.10
2018-03-31T21:06:56.572Z,62.43
2018-03-31T21:09:23.566Z,66.80
2018-03-31T21:11:50.569Z,64.20
2018-03-31T21:14:17.545Z,63.50
2018-03-31T21:16:44.540Z,61.90
2018-03-31T21:19:12.287Z,65.57
2018-03-31T21:21:39.280Z,65.33
2018-03-31T21:24:06.275Z,61.37
2018-03-31T21:26:33.263Z,53.97
2018-03-31T21:29:00.271Z,51.27
2018-03-31T21:31:27.263Z,45.97
2018-03-31T21:33:54.231Z,43.30
2018-03-31T21:36:21.232Z,41.70
2018-03-31T21:38:48.985Z,39.23
2018-03-31T21:41:15.992Z,39.73
2018-03-31T21:43:43.004Z,38.93
2018-03-31T21:46:09.980Z,35.57
2018-03-31T21:48:36.970Z,36.40
2018-03-31T21:51:03.944Z,38.73
2018-03-31T21:53:30.943Z,35.00
2018-03-31T21:55:58.678Z,32.87
2018-03-31T21:58:25.666Z,31.43
2018-03-31T22:00:52.647Z,29.97
2018-03-31T22:03:19.639Z,32.60
2018-03-31T22:05:46.616Z,29.60
2018-03-31T22:08:13.609Z,31.30
2018-03-31T22:10:40.597Z,34.00
2018-03-31T22:13:13.307Z,37.13
2018-03-31T22:15:46.693Z,39.03
2018-03-31T22:18:13.668Z,41.80
2018-03-31T22:20:40.657Z,41.27
2018-03-31T22:23:07.647Z,39.87
2018-03-31T22:25:35.396Z,42.00
2018-03-31T22:28:02.397Z,39.87
2018-03-31T22:30:29.374Z,39.17
2018-03-31T22:32:56.360Z,33.40
2018-03-31T22:35:23.847Z,29.67
2018-03-31T22:37:50.844Z,30.00
2018-03-31T22:40:17.819Z,30.73
2018-03-31T22:42:44.803Z,29.87
2018-03-31T22:45:11.784Z,30.23
2018-03-31T22:47:39.542Z,29.73
2018-03-31T22:50:06.515Z,26.67
2018-03-31T22:52:33.619Z,27.00
2018-03-31T22:55:00.588Z,28.70
2018-03-31T22:57:27.588Z,26.73
2018-03-31T22:59:54.569Z,26.17
2018-03-31T23:02:21.630Z,25.00
2018-03-31T23:04:48.602Z,28.67
2018-03-31T23:07:15.604Z,26.40
2018-03-31T23:09:42.594Z,24.83
2018-03-31T23:12:09.592Z,28.33
2018-03-31T23:14:36.579Z,29.17
2018-03-31T23:17:04.332Z,29.13
2018-03-31T23:19:32.076Z,28.17
2018-03-31T23:21:59.060Z,34.37
2018-03-31T23:24:26.803Z,33.10
2018-03-31T23:26:53.793Z,32.77
2018-03-31T23:29:20.776Z,30.80
2018-03-31T23:31:47.785Z,34.17
2018-03-31T23:34:14.764Z,35.53
2018-03-31T23:36:41.743Z,39.87
2018-03-31T23:39:09.495Z,37.13
2018-03-31T23:41:36.487Z,42.30
2018-03-31T23:44:03.473Z,44.77
2018-03-31T23:46:30.451Z,40.87
2018-03-31T23:48:58.208Z,38.20
2018-03-31T23:51:25.184Z,39.20
2018-03-31T23:53:52.204Z,40.00
2018-03-31T23:56:19.950Z,39.60
2018-03-31T23:58:46.939Z,44.80
